sensor_id;sensor_type;location;lat;lon;timestamp;P1;durP1;ratioP1;P2;durP2;ratioP2
31270;SDS011;17904;47.420;9.310;2022-12-07T00:01:12;77.38;;;33.97;;
31270;SDS011;17904;47.420;9.310;2022-12-07T00:03:41;58.67;;;25.92;;
31270;SDS011;17904;47.420;9.310;2022-12-07T00:06:09;52.83;;;24.65;;
31270;SDS011;17904;47.420;9.310;2022-12-07T00:08:37;51.05;;;24.92;;
31270;SDS011;17904;47.420;9.310;2022-12-07T00:13:36;43.65;;;22.63;;
31270;SDS011;17904;47.420;9.310;2022-12-07T00:16:04;44.30;;;22.42;;
31270;SDS011;17904;47.420;9.310;2022-12-07T00:18:33;41.08;;;21.17;;
31270;SDS011;17904;47.420;9.310;2022-12-07T00:21:04;47.95;;;24.25;;
31270;SDS011;17904;47.420;9.310;2022-12-07T00:23:33;51.08;;;23.92;;
31270;SDS011;17904;47.420;9.310;2022-12-07T00:26:07;46.03;;;23.90;;
31270;SDS011;17904;47.420;9.310;2022-12-07T00:28:36;41.85;;;22.45;;
31270;SDS011;17904;47.420;9.310;2022-12-07T00:33:31;42.05;;;21.90;;
31270;SDS011;17904;47.420;9.310;2022-12-07T00:35:58;47.58;;;24.17;;
31270;SDS011;17904;47.420;9.310;2022-12-07T00:38:30;46.63;;;24.42;;
31270;SDS011;17904;47.420;9.310;2022-12-07T00:41:00;42.35;;;21.88;;
31270;SDS011;17904;47.420;9.310;2022-12-07T00:43:29;56.75;;;26.13;;
31270;SDS011;17904;47.420;9.310;2022-12-07T00:45:56;56.03;;;25.63;;
31270;SDS011;17904;47.420;9.310;2022-12-07T00:48:23;59.70;;;25.10;;
31270;SDS011;17904;47.420;9.310;2022-12-07T00:50:50;53.63;;;24.33;;
31270;SDS011;17904;47.420;9.310;2022-12-07T00:53:17;54.25;;;24.33;;
31270;SDS011;17904;47.420;9.310;2022-12-07T00:55:44;49.05;;;23.40;;
31270;SDS011;17904;47.420;9.310;2022-12-07T00:58:11;47.40;;;24.48;;
31270;SDS011;17904;47.420;9.310;2022-12-07T01:03:06;52.13;;;24.10;;
31270;SDS011;17904;47.420;9.310;2022-12-07T01:05:34;49.60;;;22.42;;
31270;SDS011;17904;47.420;9.310;2022-12-07T01:08:01;60.30;;;27.65;;
31270;SDS011;17904;47.420;9.310;2022-12-07T01:10:29;58.47;;;26.88;;
31270;SDS011;17904;47.420;9.310;2022-12-07T01:12:58;61.80;;;26.73;;
31270;SDS011;17904;47.420;9.310;2022-12-07T01:15:25;60.40;;;28.50;;
31270;SDS011;17904;47.420;9.310;2022-12-07T01:17:52;60.78;;;27.48;;
31270;SDS011;17904;47.420;9.310;2022-12-07T01:20:20;59.00;;;29.40;;
31270;SDS011;17904;47.420;9.310;2022-12-07T01:22:48;61.78;;;27.20;;
31270;SDS011;17904;47.420;9.310;2022-12-07T01:25:14;67.10;;;27.98;;
31270;SDS011;17904;47.420;9.310;2022-12-07T01:30:09;55.95;;;26.20;;
31270;SDS011;17904;47.420;9.310;2022-12-07T01:32:37;59.03;;;26.52;;
31270;SDS011;17904;47.420;9.310;2022-12-07T01:37:34;42.22;;;22.00;;
31270;SDS011;17904;47.420;9.310;2022-12-07T01:40:05;56.75;;;26.90;;
31270;SDS011;17904;47.420;9.310;2022-12-07T01:42:33;62.30;;;29.70;;
31270;SDS011;17904;47.420;9.310;2022-12-07T01:48:02;61.35;;;28.35;;
31270;SDS011;17904;47.420;9.310;2022-12-07T01:50:31;66.05;;;31.50;;
31270;SDS011;17904;47.420;9.310;2022-12-07T01:52:58;58.47;;;28.42;;
31270;SDS011;17904;47.420;9.310;2022-12-07T01:55:27;63.00;;;29.17;;
31270;SDS011;17904;47.420;9.310;2022-12-07T01:57:54;60.13;;;26.92;;
31270;SDS011;17904;47.420;9.310;2022-12-07T02:00:21;62.08;;;30.85;;
31270;SDS011;17904;47.420;9.310;2022-12-07T02:05:33;58.55;;;27.65;;
31270;SDS011;17904;47.420;9.310;2022-12-07T02:08:01;58.42;;;27.58;;
31270;SDS011;17904;47.420;9.310;2022-12-07T02:10:29;62.72;;;30.73;;
31270;SDS011;17904;47.420;9.310;2022-12-07T02:12:59;62.92;;;28.98;;
31270;SDS011;17904;47.420;9.310;2022-12-07T02:15:29;66.97;;;30.45;;
31270;SDS011;17904;47.420;9.310;2022-12-07T02:18:25;55.15;;;28.13;;
31270;SDS011;17904;47.420;9.310;2022-12-07T02:31:50;50.95;;;26.50;;
31270;SDS011;17904;47.420;9.310;2022-12-07T02:34:44;45.45;;;24.98;;
31270;SDS011;17904;47.420;9.310;2022-12-07T02:37:21;59.20;;;28.95;;
31270;SDS011;17904;47.420;9.310;2022-12-07T02:39:57;55.00;;;28.75;;
31270;SDS011;17904;47.420;9.310;2022-12-07T02:42:32;52.65;;;27.48;;
31270;SDS011;17904;47.420;9.310;2022-12-07T02:45:05;53.65;;;27.90;;
31270;SDS011;17904;47.420;9.310;2022-12-07T02:47:33;55.65;;;28.48;;
31270;SDS011;17904;47.420;9.310;2022-12-07T02:50:03;57.13;;;29.55;;
31270;SDS011;17904;47.420;9.310;2022-12-07T02:52:31;64.95;;;32.90;;
31270;SDS011;17904;47.420;9.310;2022-12-07T02:54:58;61.97;;;30.58;;
31270;SDS011;17904;47.420;9.310;2022-12-07T02:57:28;60.22;;;30.80;;
31270;SDS011;17904;47.420;9.310;2022-12-07T03:00:26;54.22;;;27.80;;
31270;SDS011;17904;47.420;9.310;2022-12-07T03:11:08;60.58;;;31.27;;
31270;SDS011;17904;47.420;9.310;2022-12-07T03:16:20;63.95;;;30.45;;
31270;SDS011;17904;47.420;9.310;2022-12-07T03:19:00;58.05;;;29.55;;
31270;SDS011;17904;47.420;9.310;2022-12-07T03:21:40;66.28;;;32.38;;
31270;SDS011;17904;47.420;9.310;2022-12-07T03:24:14;54.58;;;29.23;;
31270;SDS011;17904;47.420;9.310;2022-12-07T03:26:46;58.17;;;30.20;;
31270;SDS011;17904;47.420;9.310;2022-12-07T03:29:20;59.50;;;29.80;;
31270;SDS011;17904;47.420;9.310;2022-12-07T03:32:38;58.22;;;30.45;;
31270;SDS011;17904;47.420;9.310;2022-12-07T03:34:53;54.30;;;29.73;;
31270;SDS011;17904;47.420;9.310;2022-12-07T03:37:42;53.55;;;28.20;;
31270;SDS011;17904;47.420;9.310;2022-12-07T03:42:56;54.30;;;27.55;;
31270;SDS011;17904;47.420;9.310;2022-12-07T03:45:28;56.55;;;27.27;;
31270;SDS011;17904;47.420;9.310;2022-12-07T03:53:08;50.05;;;27.40;;
31270;SDS011;17904;47.420;9.310;2022-12-07T03:55:44;51.70;;;29.20;;
31270;SDS011;17904;47.420;9.310;2022-12-07T03:58:14;47.65;;;26.55;;
31270;SDS011;17904;47.420;9.310;2022-12-07T04:00:45;47.50;;;27.90;;
31270;SDS011;17904;47.420;9.310;2022-12-07T04:03:12;47.38;;;25.50;;
31270;SDS011;17904;47.420;9.310;2022-12-07T04:08:06;43.93;;;25.47;;
31270;SDS011;17904;47.420;9.310;2022-12-07T04:10:33;46.50;;;26.73;;
31270;SDS011;17904;47.420;9.310;2022-12-07T04:13:00;50.97;;;28.33;;
31270;SDS011;17904;47.420;9.310;2022-12-07T04:15:27;47.67;;;27.50;;
31270;SDS011;17904;47.420;9.310;2022-12-07T04:17:54;52.00;;;28.10;;
31270;SDS011;17904;47.420;9.310;2022-12-07T04:20:21;53.00;;;28.60;;
31270;SDS011;17904;47.420;9.310;2022-12-07T04:22:48;49.10;;;27.50;;
31270;SDS011;17904;47.420;9.310;2022-12-07T04:25:15;50.42;;;27.85;;
31270;SDS011;17904;47.420;9.310;2022-12-07T04:30:08;50.22;;;26.92;;
31270;SDS011;17904;47.420;9.310;2022-12-07T04:32:35;47.65;;;26.23;;
31270;SDS011;17904;47.420;9.310;2022-12-07T04:35:03;45.05;;;25.05;;
31270;SDS011;17904;47.420;9.310;2022-12-07T04:37:30;50.20;;;27.27;;
31270;SDS011;17904;47.420;9.310;2022-12-07T04:39:57;47.15;;;26.40;;
31270;SDS011;17904;47.420;9.310;2022-12-07T04:42:24;49.58;;;28.80;;
31270;SDS011;17904;47.420;9.310;2022-12-07T04:44:51;44.25;;;24.20;;
31270;SDS011;17904;47.420;9.310;2022-12-07T04:49:44;54.65;;;29.02;;
31270;SDS011;17904;47.420;9.310;2022-12-07T04:54:37;50.90;;;27.17;;
31270;SDS011;17904;47.420;9.310;2022-12-07T04:57:04;54.05;;;28.95;;
31270;SDS011;17904;47.420;9.310;2022-12-07T05:01:57;48.22;;;25.95;;
31270;SDS011;17904;47.420;9.310;2022-12-07T05:06:51;51.78;;;27.45;;
31270;SDS011;17904;47.420;9.310;2022-12-07T05:11:44;50.80;;;27.00;;
31270;SDS011;17904;47.420;9.310;2022-12-07T05:16:39;53.33;;;28.48;;
31270;SDS011;17904;47.420;9.310;2022-12-07T05:19:08;52.55;;;27.92;;
31270;SDS011;17904;47.420;9.310;2022-12-07T05:21:35;55.42;;;31.67;;
31270;SDS011;17904;47.420;9.310;2022-12-07T05:24:03;50.95;;;28.25;;
31270;SDS011;17904;47.420;9.310;2022-12-07T05:26:30;49.70;;;28.23;;
31270;SDS011;17904;47.420;9.310;2022-12-07T05:31:25;53.22;;;28.70;;
31270;SDS011;17904;47.420;9.310;2022-12-07T05:33:52;54.65;;;29.38;;
31270;SDS011;17904;47.420;9.310;2022-12-07T05:36:19;52.28;;;28.60;;
31270;SDS011;17904;47.420;9.310;2022-12-07T05:38:46;53.85;;;28.95;;
31270;SDS011;17904;47.420;9.310;2022-12-07T05:41:14;58.72;;;30.42;;
31270;SDS011;17904;47.420;9.310;2022-12-07T05:44:01;55.67;;;31.45;;
31270;SDS011;17904;47.420;9.310;2022-12-07T05:46:28;58.75;;;30.50;;
31270;SDS011;17904;47.420;9.310;2022-12-07T05:51:21;48.20;;;27.08;;
31270;SDS011;17904;47.420;9.310;2022-12-07T05:56:14;51.93;;;27.87;;
31270;SDS011;17904;47.420;9.310;2022-12-07T05:58:41;52.85;;;28.67;;
31270;SDS011;17904;47.420;9.310;2022-12-07T06:01:27;51.22;;;28.17;;
31270;SDS011;17904;47.420;9.310;2022-12-07T06:03:54;53.80;;;29.15;;
31270;SDS011;17904;47.420;9.310;2022-12-07T06:06:21;51.60;;;29.88;;
31270;SDS011;17904;47.420;9.310;2022-12-07T06:08:47;47.05;;;27.30;;
31270;SDS011;17904;47.420;9.310;2022-12-07T06:14:00;48.85;;;27.20;;
31270;SDS011;17904;47.420;9.310;2022-12-07T06:16:26;57.22;;;31.95;;
31270;SDS011;17904;47.420;9.310;2022-12-07T06:18:53;53.65;;;29.58;;
31270;SDS011;17904;47.420;9.310;2022-12-07T06:23:47;48.70;;;27.08;;
31270;SDS011;17904;47.420;9.310;2022-12-07T06:26:14;56.25;;;31.05;;
31270;SDS011;17904;47.420;9.310;2022-12-07T06:31:07;54.55;;;29.38;;
31270;SDS011;17904;47.420;9.310;2022-12-07T06:33:39;63.00;;;34.90;;
31270;SDS011;17904;47.420;9.310;2022-12-07T06:36:07;60.58;;;32.13;;
31270;SDS011;17904;47.420;9.310;2022-12-07T06:38:34;61.45;;;32.67;;
31270;SDS011;17904;47.420;9.310;2022-12-07T06:41:01;57.53;;;30.50;;
31270;SDS011;17904;47.420;9.310;2022-12-07T06:43:29;56.15;;;32.13;;
31270;SDS011;17904;47.420;9.310;2022-12-07T06:45:56;52.80;;;29.15;;
31270;SDS011;17904;47.420;9.310;2022-12-07T06:48:23;64.75;;;34.83;;
31270;SDS011;17904;47.420;9.310;2022-12-07T06:50:50;56.00;;;31.25;;
31270;SDS011;17904;47.420;9.310;2022-12-07T06:53:20;61.33;;;33.42;;
31270;SDS011;17904;47.420;9.310;2022-12-07T06:55:48;52.47;;;29.50;;
31270;SDS011;17904;47.420;9.310;2022-12-07T06:58:15;54.38;;;31.70;;
31270;SDS011;17904;47.420;9.310;2022-12-07T07:00:43;69.55;;;35.45;;
31270;SDS011;17904;47.420;9.310;2022-12-07T07:03:10;61.55;;;33.42;;
31270;SDS011;17904;47.420;9.310;2022-12-07T07:05:37;66.72;;;34.40;;
31270;SDS011;17904;47.420;9.310;2022-12-07T07:10:48;65.22;;;32.25;;
31270;SDS011;17904;47.420;9.310;2022-12-07T07:15:41;69.93;;;34.22;;
31270;SDS011;17904;47.420;9.310;2022-12-07T07:20:36;63.03;;;32.75;;
31270;SDS011;17904;47.420;9.310;2022-12-07T07:23:04;58.75;;;32.58;;
31270;SDS011;17904;47.420;9.310;2022-12-07T07:25:31;61.85;;;32.33;;
31270;SDS011;17904;47.420;9.310;2022-12-07T07:27:59;61.72;;;32.83;;
31270;SDS011;17904;47.420;9.310;2022-12-07T07:30:25;59.53;;;32.40;;
31270;SDS011;17904;47.420;9.310;2022-12-07T07:32:56;62.03;;;34.45;;
31270;SDS011;17904;47.420;9.310;2022-12-07T07:35:27;66.32;;;32.45;;
31270;SDS011;17904;47.420;9.310;2022-12-07T07:37:55;63.92;;;33.97;;
31270;SDS011;17904;47.420;9.310;2022-12-07T07:40:22;68.88;;;35.90;;
31270;SDS011;17904;47.420;9.310;2022-12-07T07:42:50;69.78;;;36.00;;
31270;SDS011;17904;47.420;9.310;2022-12-07T07:45:18;70.43;;;34.22;;
31270;SDS011;17904;47.420;9.310;2022-12-07T07:47:47;59.40;;;31.40;;
31270;SDS011;17904;47.420;9.310;2022-12-07T07:50:14;64.03;;;33.70;;
31270;SDS011;17904;47.420;9.310;2022-12-07T07:52:42;68.53;;;35.70;;
31270;SDS011;17904;47.420;9.310;2022-12-07T07:55:09;72.15;;;37.65;;
31270;SDS011;17904;47.420;9.310;2022-12-07T07:57:37;73.45;;;37.83;;
31270;SDS011;17904;47.420;9.310;2022-12-07T08:00:07;67.85;;;36.70;;
31270;SDS011;17904;47.420;9.310;2022-12-07T08:02:39;67.60;;;35.40;;
31270;SDS011;17904;47.420;9.310;2022-12-07T08:05:06;71.32;;;36.58;;
31270;SDS011;17904;47.420;9.310;2022-12-07T08:07:34;67.38;;;33.92;;
31270;SDS011;17904;47.420;9.310;2022-12-07T08:10:01;70.00;;;37.72;;
31270;SDS011;17904;47.420;9.310;2022-12-07T08:12:28;63.08;;;34.20;;
31270;SDS011;17904;47.420;9.310;2022-12-07T08:17:22;65.80;;;34.13;;
31270;SDS011;17904;47.420;9.310;2022-12-07T08:22:15;64.60;;;33.25;;
31270;SDS011;17904;47.420;9.310;2022-12-07T08:24:41;68.00;;;36.80;;
31270;SDS011;17904;47.420;9.310;2022-12-07T08:27:08;70.90;;;35.83;;
31270;SDS011;17904;47.420;9.310;2022-12-07T08:29:35;69.10;;;36.30;;
31270;SDS011;17904;47.420;9.310;2022-12-07T08:34:35;65.80;;;34.35;;
31270;SDS011;17904;47.420;9.310;2022-12-07T08:37:02;64.80;;;33.88;;
31270;SDS011;17904;47.420;9.310;2022-12-07T08:39:29;63.08;;;32.78;;
31270;SDS011;17904;47.420;9.310;2022-12-07T08:41:58;63.40;;;33.25;;
31270;SDS011;17904;47.420;9.310;2022-12-07T08:44:24;70.55;;;35.30;;
31270;SDS011;17904;47.420;9.310;2022-12-07T08:46:53;62.05;;;33.22;;
31270;SDS011;17904;47.420;9.310;2022-12-07T08:49:26;68.65;;;36.50;;
31270;SDS011;17904;47.420;9.310;2022-12-07T08:51:58;67.25;;;36.47;;
31270;SDS011;17904;47.420;9.310;2022-12-07T08:54:24;69.45;;;35.85;;
31270;SDS011;17904;47.420;9.310;2022-12-07T08:56:52;63.17;;;33.55;;
31270;SDS011;17904;47.420;9.310;2022-12-07T08:59:25;54.10;;;30.10;;
31270;SDS011;17904;47.420;9.310;2022-12-07T09:01:53;63.63;;;34.13;;
31270;SDS011;17904;47.420;9.310;2022-12-07T09:04:20;70.82;;;35.78;;
31270;SDS011;17904;47.420;9.310;2022-12-07T09:06:47;67.97;;;34.83;;
31270;SDS011;17904;47.420;9.310;2022-12-07T09:09:14;64.85;;;35.38;;
31270;SDS011;17904;47.420;9.310;2022-12-07T09:11:41;64.72;;;34.88;;
31270;SDS011;17904;47.420;9.310;2022-12-07T09:14:08;64.50;;;34.35;;
31270;SDS011;17904;47.420;9.310;2022-12-07T09:19:02;74.03;;;32.65;;
31270;SDS011;17904;47.420;9.310;2022-12-07T09:21:28;68.78;;;34.75;;
31270;SDS011;17904;47.420;9.310;2022-12-07T09:23:55;62.25;;;33.53;;
31270;SDS011;17904;47.420;9.310;2022-12-07T09:26:22;74.88;;;36.13;;
31270;SDS011;17904;47.420;9.310;2022-12-07T09:28:49;73.05;;;38.65;;
31270;SDS011;17904;47.420;9.310;2022-12-07T09:33:55;64.25;;;32.08;;
31270;SDS011;17904;47.420;9.310;2022-12-07T09:36:23;66.78;;;34.78;;
31270;SDS011;17904;47.420;9.310;2022-12-07T09:38:50;64.30;;;33.35;;
31270;SDS011;17904;47.420;9.310;2022-12-07T09:41:18;72.18;;;37.13;;
31270;SDS011;17904;47.420;9.310;2022-12-07T09:43:45;70.38;;;34.95;;
31270;SDS011;17904;47.420;9.310;2022-12-07T09:46:13;68.60;;;34.97;;
31270;SDS011;17904;47.420;9.310;2022-12-07T09:48:43;67.00;;;35.42;;
31270;SDS011;17904;47.420;9.310;2022-12-07T09:51:21;65.55;;;33.53;;
31270;SDS011;17904;47.420;9.310;2022-12-07T09:53:51;69.47;;;36.05;;
31270;SDS011;17904;47.420;9.310;2022-12-07T09:56:19;75.32;;;38.00;;
31270;SDS011;17904;47.420;9.310;2022-12-07T09:58:48;69.03;;;35.05;;
31270;SDS011;17904;47.420;9.310;2022-12-07T10:01:19;65.22;;;34.75;;
31270;SDS011;17904;47.420;9.310;2022-12-07T10:03:52;60.83;;;32.17;;
31270;SDS011;17904;47.420;9.310;2022-12-07T10:06:23;57.30;;;31.17;;
31270;SDS011;17904;47.420;9.310;2022-12-07T10:08:49;60.55;;;29.38;;
31270;SDS011;17904;47.420;9.310;2022-12-07T10:13:44;55.72;;;29.13;;
31270;SDS011;17904;47.420;9.310;2022-12-07T10:18:51;64.10;;;30.65;;
31270;SDS011;17904;47.420;9.310;2022-12-07T10:21:22;66.03;;;32.67;;
31270;SDS011;17904;47.420;9.310;2022-12-07T10:29:24;61.05;;;29.90;;
31270;SDS011;17904;47.420;9.310;2022-12-07T10:34:42;57.20;;;27.75;;
31270;SDS011;17904;47.420;9.310;2022-12-07T10:37:18;63.50;;;29.38;;
31270;SDS011;17904;47.420;9.310;2022-12-07T10:39:50;50.85;;;25.13;;
31270;SDS011;17904;47.420;9.310;2022-12-07T10:42:22;51.75;;;26.27;;
31270;SDS011;17904;47.420;9.310;2022-12-07T10:45:12;42.80;;;21.63;;
31270;SDS011;17904;47.420;9.310;2022-12-07T10:47:48;42.30;;;20.30;;
31270;SDS011;17904;47.420;9.310;2022-12-07T10:50:45;41.35;;;21.75;;
31270;SDS011;17904;47.420;9.310;2022-12-07T10:55:56;32.20;;;17.13;;
31270;SDS011;17904;47.420;9.310;2022-12-07T11:01:31;36.33;;;18.20;;
31270;SDS011;17904;47.420;9.310;2022-12-07T11:06:52;38.97;;;19.48;;
31270;SDS011;17904;47.420;9.310;2022-12-07T11:09:43;35.92;;;17.60;;
31270;SDS011;17904;47.420;9.310;2022-12-07T11:17:52;37.50;;;19.85;;
31270;SDS011;17904;47.420;9.310;2022-12-07T11:20:34;36.22;;;18.17;;
31270;SDS011;17904;47.420;9.310;2022-12-07T11:26:15;37.78;;;18.35;;
31270;SDS011;17904;47.420;9.310;2022-12-07T11:31:52;34.22;;;18.52;;
31270;SDS011;17904;47.420;9.310;2022-12-07T11:37:30;34.35;;;18.15;;
31270;SDS011;17904;47.420;9.310;2022-12-07T11:40:11;34.53;;;16.70;;
31270;SDS011;17904;47.420;9.310;2022-12-07T11:43:09;34.92;;;16.92;;
31270;SDS011;17904;47.420;9.310;2022-12-07T11:45:44;32.42;;;17.58;;
31270;SDS011;17904;47.420;9.310;2022-12-07T11:48:22;37.42;;;18.30;;
31270;SDS011;17904;47.420;9.310;2022-12-07T11:51:04;36.92;;;18.10;;
31270;SDS011;17904;47.420;9.310;2022-12-07T11:53:38;35.22;;;18.02;;
31270;SDS011;17904;47.420;9.310;2022-12-07T11:56:19;38.22;;;20.00;;
31270;SDS011;17904;47.420;9.310;2022-12-07T12:06:39;43.95;;;22.27;;
31270;SDS011;17904;47.420;9.310;2022-12-07T12:12:31;35.97;;;18.98;;
31270;SDS011;17904;47.420;9.310;2022-12-07T12:18:58;34.05;;;17.85;;
31270;SDS011;17904;47.420;9.310;2022-12-07T12:24:18;33.28;;;17.63;;
31270;SDS011;17904;47.420;9.310;2022-12-07T12:26:50;31.35;;;17.00;;
31270;SDS011;17904;47.420;9.310;2022-12-07T12:29:39;34.90;;;17.30;;
31270;SDS011;17904;47.420;9.310;2022-12-07T12:32:13;29.02;;;15.68;;
31270;SDS011;17904;47.420;9.310;2022-12-07T12:37:46;30.73;;;16.08;;
31270;SDS011;17904;47.420;9.310;2022-12-07T12:42:44;24.95;;;14.32;;
31270;SDS011;17904;47.420;9.310;2022-12-07T12:45:20;31.17;;;16.15;;
31270;SDS011;17904;47.420;9.310;2022-12-07T12:48:00;35.75;;;17.75;;
31270;SDS011;17904;47.420;9.310;2022-12-07T12:50:32;32.80;;;18.02;;
31270;SDS011;17904;47.420;9.310;2022-12-07T12:53:05;33.05;;;16.92;;
31270;SDS011;17904;47.420;9.310;2022-12-07T12:58:30;33.20;;;16.95;;
31270;SDS011;17904;47.420;9.310;2022-12-07T13:03:54;33.50;;;16.40;;
31270;SDS011;17904;47.420;9.310;2022-12-07T13:08:53;36.50;;;18.15;;
31270;SDS011;17904;47.420;9.310;2022-12-07T13:11:29;32.80;;;16.77;;
31270;SDS011;17904;47.420;9.310;2022-12-07T13:17:10;32.20;;;17.10;;
31270;SDS011;17904;47.420;9.310;2022-12-07T13:25:41;35.65;;;18.33;;
31270;SDS011;17904;47.420;9.310;2022-12-07T13:28:00;28.77;;;15.77;;
31270;SDS011;17904;47.420;9.310;2022-12-07T13:30:42;33.78;;;19.08;;
31270;SDS011;17904;47.420;9.310;2022-12-07T13:33:30;31.50;;;16.60;;
31270;SDS011;17904;47.420;9.310;2022-12-07T13:36:00;35.33;;;16.42;;
31270;SDS011;17904;47.420;9.310;2022-12-07T13:38:34;34.10;;;18.50;;
31270;SDS011;17904;47.420;9.310;2022-12-07T13:45:57;30.10;;;15.98;;
31270;SDS011;17904;47.420;9.310;2022-12-07T13:48:30;26.38;;;15.48;;
31270;SDS011;17904;47.420;9.310;2022-12-07T13:50:59;27.23;;;15.25;;
31270;SDS011;17904;47.420;9.310;2022-12-07T13:53:29;28.05;;;15.68;;
31270;SDS011;17904;47.420;9.310;2022-12-07T13:55:57;28.63;;;16.10;;
31270;SDS011;17904;47.420;9.310;2022-12-07T13:58:26;26.05;;;15.00;;
31270;SDS011;17904;47.420;9.310;2022-12-07T14:00:56;25.00;;;14.30;;
31270;SDS011;17904;47.420;9.310;2022-12-07T14:03:28;24.48;;;13.85;;
31270;SDS011;17904;47.420;9.310;2022-12-07T14:06:06;25.40;;;14.57;;
31270;SDS011;17904;47.420;9.310;2022-12-07T14:08:44;26.58;;;15.35;;
31270;SDS011;17904;47.420;9.310;2022-12-07T14:11:17;24.08;;;14.73;;
31270;SDS011;17904;47.420;9.310;2022-12-07T14:16:36;23.75;;;13.63;;
31270;SDS011;17904;47.420;9.310;2022-12-07T14:19:04;24.58;;;14.15;;
31270;SDS011;17904;47.420;9.310;2022-12-07T14:24:40;20.75;;;12.45;;
31270;SDS011;17904;47.420;9.310;2022-12-07T14:27:22;22.80;;;13.27;;
31270;SDS011;17904;47.420;9.310;2022-12-07T14:29:52;23.08;;;13.57;;
31270;SDS011;17904;47.420;9.310;2022-12-07T14:32:20;24.70;;;14.13;;
31270;SDS011;17904;47.420;9.310;2022-12-07T14:34:55;24.00;;;14.23;;
31270;SDS011;17904;47.420;9.310;2022-12-07T14:37:23;24.77;;;14.00;;
31270;SDS011;17904;47.420;9.310;2022-12-07T14:39:51;21.90;;;13.15;;
31270;SDS011;17904;47.420;9.310;2022-12-07T14:42:18;22.15;;;13.20;;
31270;SDS011;17904;47.420;9.310;2022-12-07T14:44:45;26.13;;;12.82;;
31270;SDS011;17904;47.420;9.310;2022-12-07T14:49:59;19.58;;;12.60;;
31270;SDS011;17904;47.420;9.310;2022-12-07T14:52:31;22.63;;;12.73;;
31270;SDS011;17904;47.420;9.310;2022-12-07T14:55:21;21.92;;;12.85;;
31270;SDS011;17904;47.420;9.310;2022-12-07T14:57:51;20.67;;;12.57;;
31270;SDS011;17904;47.420;9.310;2022-12-07T15:00:18;21.63;;;12.45;;
31270;SDS011;17904;47.420;9.310;2022-12-07T15:02:47;21.48;;;12.82;;
31270;SDS011;17904;47.420;9.310;2022-12-07T15:05:15;19.63;;;12.15;;
31270;SDS011;17904;47.420;9.310;2022-12-07T15:07:43;20.05;;;11.65;;
31270;SDS011;17904;47.420;9.310;2022-12-07T15:10:18;18.63;;;11.48;;
31270;SDS011;17904;47.420;9.310;2022-12-07T15:12:50;21.55;;;12.70;;
31270;SDS011;17904;47.420;9.310;2022-12-07T15:15:17;18.35;;;11.95;;
31270;SDS011;17904;47.420;9.310;2022-12-07T15:17:44;20.98;;;12.65;;
31270;SDS011;17904;47.420;9.310;2022-12-07T15:22:39;19.98;;;12.63;;
31270;SDS011;17904;47.420;9.310;2022-12-07T15:25:06;21.52;;;13.07;;
31270;SDS011;17904;47.420;9.310;2022-12-07T15:27:34;18.88;;;11.32;;
31270;SDS011;17904;47.420;9.310;2022-12-07T15:32:27;17.55;;;10.63;;
31270;SDS011;17904;47.420;9.310;2022-12-07T15:37:21;20.42;;;11.63;;
31270;SDS011;17904;47.420;9.310;2022-12-07T15:42:14;16.33;;;10.70;;
31270;SDS011;17904;47.420;9.310;2022-12-07T15:44:41;20.10;;;11.77;;
31270;SDS011;17904;47.420;9.310;2022-12-07T15:47:27;24.65;;;12.40;;
31270;SDS011;17904;47.420;9.310;2022-12-07T15:49:54;22.02;;;12.52;;
31270;SDS011;17904;47.420;9.310;2022-12-07T15:52:23;20.27;;;12.48;;
31270;SDS011;17904;47.420;9.310;2022-12-07T15:57:17;20.40;;;12.20;;
31270;SDS011;17904;47.420;9.310;2022-12-07T15:59:50;20.60;;;12.77;;
31270;SDS011;17904;47.420;9.310;2022-12-07T16:02:17;24.40;;;13.65;;
31270;SDS011;17904;47.420;9.310;2022-12-07T16:07:11;22.38;;;13.70;;
31270;SDS011;17904;47.420;9.310;2022-12-07T16:09:40;22.45;;;13.50;;
31270;SDS011;17904;47.420;9.310;2022-12-07T16:12:08;28.30;;;15.30;;
31270;SDS011;17904;47.420;9.310;2022-12-07T16:14:37;27.95;;;15.15;;
31270;SDS011;17904;47.420;9.310;2022-12-07T16:17:04;24.17;;;12.73;;
31270;SDS011;17904;47.420;9.310;2022-12-07T16:19:32;22.83;;;13.15;;
31270;SDS011;17904;47.420;9.310;2022-12-07T16:22:03;22.02;;;12.32;;
31270;SDS011;17904;47.420;9.310;2022-12-07T16:24:31;22.52;;;13.02;;
31270;SDS011;17904;47.420;9.310;2022-12-07T16:26:58;20.67;;;11.88;;
31270;SDS011;17904;47.420;9.310;2022-12-07T16:31:52;24.33;;;13.77;;
31270;SDS011;17904;47.420;9.310;2022-12-07T16:36:45;25.85;;;12.98;;
31270;SDS011;17904;47.420;9.310;2022-12-07T16:39:30;24.80;;;13.52;;
31270;SDS011;17904;47.420;9.310;2022-12-07T16:41:57;24.80;;;15.05;;
31270;SDS011;17904;47.420;9.310;2022-12-07T16:46:51;23.50;;;12.93;;
31270;SDS011;17904;47.420;9.310;2022-12-07T16:51:45;21.75;;;12.90;;
31270;SDS011;17904;47.420;9.310;2022-12-07T16:54:35;23.33;;;13.35;;
31270;SDS011;17904;47.420;9.310;2022-12-07T16:57:02;20.52;;;12.77;;
31270;SDS011;17904;47.420;9.310;2022-12-07T16:59:29;23.75;;;14.25;;
31270;SDS011;17904;47.420;9.310;2022-12-07T17:01:56;30.42;;;17.45;;
31270;SDS011;17904;47.420;9.310;2022-12-07T17:06:49;23.80;;;13.57;;
31270;SDS011;17904;47.420;9.310;2022-12-07T17:09:16;25.42;;;14.18;;
31270;SDS011;17904;47.420;9.310;2022-12-07T17:11:46;23.75;;;14.25;;
31270;SDS011;17904;47.420;9.310;2022-12-07T17:14:14;26.13;;;15.05;;
31270;SDS011;17904;47.420;9.310;2022-12-07T17:16:59;23.42;;;13.68;;
31270;SDS011;17904;47.420;9.310;2022-12-07T17:19:26;25.05;;;13.70;;
31270;SDS011;17904;47.420;9.310;2022-12-07T17:21:53;22.67;;;12.80;;
31270;SDS011;17904;47.420;9.310;2022-12-07T17:24:21;24.65;;;15.18;;
31270;SDS011;17904;47.420;9.310;2022-12-07T17:26:48;26.15;;;14.43;;
31270;SDS011;17904;47.420;9.310;2022-12-07T17:29:15;22.42;;;12.50;;
31270;SDS011;17904;47.420;9.310;2022-12-07T17:31:44;26.42;;;15.57;;
31270;SDS011;17904;47.420;9.310;2022-12-07T17:34:17;25.65;;;14.43;;
31270;SDS011;17904;47.420;9.310;2022-12-07T17:36:45;29.88;;;16.48;;
31270;SDS011;17904;47.420;9.310;2022-12-07T17:39:13;27.65;;;16.15;;
31270;SDS011;17904;47.420;9.310;2022-12-07T17:41:43;27.05;;;14.77;;
31270;SDS011;17904;47.420;9.310;2022-12-07T17:44:28;29.23;;;15.13;;
31270;SDS011;17904;47.420;9.310;2022-12-07T17:46:55;26.05;;;15.32;;
31270;SDS011;17904;47.420;9.310;2022-12-07T17:49:27;24.30;;;14.25;;
31270;SDS011;17904;47.420;9.310;2022-12-07T17:51:54;28.30;;;16.65;;
31270;SDS011;17904;47.420;9.310;2022-12-07T17:54:40;31.85;;;16.38;;
31270;SDS011;17904;47.420;9.310;2022-12-07T17:57:07;30.63;;;14.95;;
31270;SDS011;17904;47.420;9.310;2022-12-07T17:59:34;23.90;;;12.90;;
31270;SDS011;17904;47.420;9.310;2022-12-07T18:02:01;24.25;;;14.20;;
31270;SDS011;17904;47.420;9.310;2022-12-07T18:04:28;23.90;;;14.18;;
31270;SDS011;17904;47.420;9.310;2022-12-07T18:09:22;27.73;;;15.48;;
31270;SDS011;17904;47.420;9.310;2022-12-07T18:11:49;25.98;;;14.73;;
31270;SDS011;17904;47.420;9.310;2022-12-07T18:14:16;24.08;;;13.68;;
31270;SDS011;17904;47.420;9.310;2022-12-07T18:16:44;20.92;;;12.48;;
31270;SDS011;17904;47.420;9.310;2022-12-07T18:19:11;26.83;;;15.90;;
31270;SDS011;17904;47.420;9.310;2022-12-07T18:21:39;26.48;;;14.73;;